Flight Track Log - Related Links

Times and Time Zones

All times are in EDT time to prevent confusion due to time zone crossing. See the KAP29 flight status page for this flight to view local times or setup timezone preferences in your user account.

Time Position Orientation Groundspeed Altitude Reporting Facility
EDT Latitude Longitude Course Direction KTS km/h meters Rate Location/Type
Sun 09:19:38 42.3500 -71.0167 304° West 116 214 152  Level KA90
Sun 09:20:20 42.3667 -71.0500 304° West 105 195 274 179 Climbing KA90
Sun 09:21:20 42.3667 -71.0833 270° West 111 206 457 144 Climbing KA90
Sun 09:22:14 42.3833 -71.1167 304° West 113 209 549 136 Climbing KA90
Sun 09:23:21 42.4000 -71.1500 304° West 129 238 732 145 Climbing KA90
Sun 09:24:20 42.4500 -71.1500 360° North 132 245 853 132 Climbing KA90
Sun 09:25:26 42.4833 -71.1667 340° North 134 248 1,006 136 Climbing KA90
Sun 09:26:21 42.5167 -71.1833 340° North 133 246 1,128 111 Climbing KA90
Sun 09:27:21 42.5500 -71.2000 340° North 133 246 1,219 122 Climbing KA90
Sun 09:28:21 42.5833 -71.2167 340° North 136 253 1,372 152 Climbing KA90
Sun 09:29:21 42.6167 -71.2333 340° North 127 235 1,524 152 Climbing KA90
Sun 09:30:21 42.6500 -71.2500 340° North 130 241 1,676 122 Climbing KA90
Sun 09:31:21 42.6833 -71.2667 340° North 133 246 1,768 132 Climbing KA90
Sun 09:32:26 42.7167 -71.2833 340° North 131 243 1,951 132 Climbing KA90
Sun 09:33:26 42.7500 -71.3000 340° North 128 237 2,042 106 Climbing KA90
Sun 09:34:27 42.7833 -71.3333 324° Northwest 133 246 2,164 136 Climbing KA90
Sun 09:36:21 42.8500 -71.3667 340° North 134 248 2,438 105 Climbing KA90
Sun 09:37:21 42.8833 -71.3833 340° North 139 257 2,469  Climbing KA90
Sun 09:39:27 42.9333 -71.4833 304° West 139 257 2,438  Descending KA90
Sun 09:40:21 42.9667 -71.5167 324° Northwest 144 267 2,469  Climbing KA90
Sun 09:41:21 43.0000 -71.5500 324° Northwest 141 261 2,438  Descending KA90
Sun 09:42:21 43.0167 -71.5833 304° West 140 259 2,469 15 Climbing KA90
Sun 09:43:27 43.0500 -71.6333 312° West 141 261 2,469  Level KA90
Sun 09:44:27 43.0833 -71.6667 324° Northwest 139 257 2,469  Level KA90
Sun 09:44:42 43.0814 -71.6811 260° West 141 261 2,469  Level Boston Center
Sun 09:45:42 43.1067 -71.7178 313° West 146 270 2,469 -15 Level Boston Center
Sun 09:46:42 43.1342 -71.7572 314° West 141 261 2,438  Descending Boston Center
Sun 09:47:42 43.1633 -71.7939 317° Northwest 141 261 2,469 15 Climbing Boston Center
Sun 09:48:42 43.1928 -71.8336 315° West 146 270 2,469  Level Boston Center
Sun 09:49:42 43.2181 -71.8731 311° West 146 270 2,469  Level Boston Center
Sun 09:50:42 43.2433 -71.9128 311° West 140 259 2,469  Level Boston Center
Sun 09:51:42 43.2683 -71.9497 313° West 140 259 2,469  Level Boston Center
Sun 09:52:42 43.2978 -71.9978 310° West 140 259 2,469  Level Boston Center
Sun 09:53:42 43.3228 -72.0319 315° West 140 259 2,469  Level Boston Center
Sun 09:54:42 43.3544 -72.0803 312° West 147 272 2,469  Level Boston Center
Sun 09:55:42 43.3794 -72.1144 315° West 147 272 2,469  Level Boston Center
Sun 09:56:42 43.4128 -72.1600 315° West 147 272 2,469  Level Boston Center
Sun 09:57:42 43.4400 -72.2056 309° West 147 272 2,469  Level Boston Center
Sun 09:58:42 43.4672 -72.2428 315° West 147 272 2,469  Level Boston Center
Sun 09:59:42 43.4944 -72.2856 311° West 147 272 2,469  Level Boston Center
Sun 10:00:42 43.5217 -72.3256 313° West 147 272 2,469  Level Boston Center
Sun 10:01:42 43.5486 -72.3656 313° West 142 262 2,469  Level Boston Center
Sun 10:02:42 43.5778 -72.4086 313° West 142 262 2,469  Level Boston Center
Sun 10:03:42 43.6050 -72.4458 315° West 142 262 2,469  Level Boston Center
Sun 10:04:42 43.6342 -72.4917 311° West 149 275 2,469  Level Boston Center
Sun 10:05:42 43.6611 -72.5319 313° West 149 275 2,469  Level Boston Center
Sun 10:06:42 43.6903 -72.5781 311° West 149 275 2,469  Level Boston Center
Sun 10:07:42 43.7172 -72.6181 313° West 149 275 2,469 -14 Level Boston Center
Sun 10:08:54 43.7486 -72.6586 317° Northwest 149 275 2,438 -14 Descending Boston Center
Sun 10:09:54 43.7756 -72.7075 307° West 149 275 2,438  Level Boston Center
Sun 10:10:54 43.8006 -72.7422 315° West 142 262 2,438  Level Boston Center
Sun 10:11:54 43.8253 -72.7825 310° West 137 254 2,438  Level Boston Center
Sun 10:12:54 43.8564 -72.8289 313° West 142 262 2,438  Level Boston Center
Sun 10:13:54 43.8814 -72.8722 309° West 142 262 2,438  Level Boston Center
Sun 10:14:54 43.9000 -72.9183 299° West 137 254 2,438  Level Boston Center
Sun 10:15:54 43.9183 -72.9647 299° West 137 254 2,438  Level Boston Center
Sun 10:16:54 43.9328 -73.0022 298° West 137 254 2,438  Level Boston Center
Sun 10:17:54 43.9533 -73.0572 297° West 137 254 2,438  Level Boston Center
Sun 10:18:54 43.9719 -73.1064 298° West 137 254 2,438  Level Boston Center
Sun 10:19:54 43.9903 -73.1528 299° West 137 254 2,438  Level Boston Center
Sun 10:20:54 44.0047 -73.1906 298° West 137 254 2,438  Level Boston Center
Sun 10:21:54 44.0250 -73.2456 297° West 137 254 2,438  Level Boston Center
Sun 10:22:54 44.0436 -73.2922 299° West 137 254 2,438  Level Boston Center
Sun 10:23:54 44.0619 -73.3386 299° West 137 254 2,438  Level Boston Center
Sun 10:24:54 44.0783 -73.3822 298° West 137 254 2,438  Level Boston Center
Sun 10:25:54 44.0967 -73.4286 299° West 137 254 2,438 15 Level Boston Center
Sun 10:26:54 44.1150 -73.4753 299° West 137 254 2,469 15 Climbing Boston Center
Sun 10:27:54 44.1311 -73.5247 294° West 137 254 2,469 -15 Level Boston Center
Sun 10:28:54 44.1494 -73.5742 297° West 137 254 2,438 -46 Descending Boston Center
Sun 10:29:54 44.1697 -73.6267 298° West 137 254 2,377 -61 Descending Boston Center
Sun 10:30:54 44.1881 -73.6792 296° West 148 274 2,316 -41 Descending Boston Center
Sun 10:32:06 44.2122 -73.7464 297° West 153 283 2,286  Descending Boston Center
Sun 10:33:06 44.2283 -73.7872 299° West 147 272 2,316 15 Climbing Boston Center
Sun 10:34:06 44.2467 -73.8369 297° West 147 272 2,316  Level Boston Center
Sun 10:35:18 44.2647 -73.8808 300° West 142 262 2,316  Level Boston Center
Sun 10:36:18 44.2850 -73.9336 298° West 132 245 2,316  Level Boston Center
Sun 10:37:18 44.3011 -73.9833 294° West 138 256 2,316  Level Boston Center
Sun 10:38:18 44.3192 -74.0272 300° West 138 256 2,316  Level Boston Center
Sun 10:39:18 44.3372 -74.0742 298° West 138 256 2,316  Level Boston Center

Login

Don't have an account? Register now (free) for customized features, flight alerts, and more!